Time;durP1;ratioP1;P1;durP2;ratioP2;P2;SDS_P1;SDS_P2;PMS_P1;PMS_P2;Temp;Humidity;BMP_temperature;BMP_pressure;BME280_temperature;BME280_humidity;BME280_pressure;Samples;Min_cycle;Max_cycle;Signal;HPM_P1;HPM_P2
2022/05/30 00:00:28;;;;;;;7.87;7.13;;;8.40;90.90;;;;;;5073033;28;20220;-65
2022/05/30 00:02:54;;;;;;;6.83;6.03;;;8.40;91.20;;;;;;5045993;28;20189;-65
2022/05/30 00:05:23;;;;;;;7.30;6.60;;;8.40;90.90;;;;;;5056331;28;20216;-65
2022/05/30 00:07:49;;;;;;;6.60;6.00;;;8.50;91.30;;;;;;5052924;28;20214;-64
2022/05/30 00:10:16;;;;;;;6.47;5.80;;;8.50;91.00;;;;;;5082848;28;20440;-65
2022/05/30 00:12:42;;;;;;;6.77;6.17;;;8.60;90.90;;;;;;5069076;28;20813;-64
2022/05/30 00:15:11;;;;;;;7.03;6.30;;;8.50;90.80;;;;;;5053117;28;20490;-65
2022/05/30 00:17:37;;;;;;;6.67;5.70;;;8.50;90.70;;;;;;5067701;28;20192;-64
2022/05/30 00:20:05;;;;;;;10.27;5.90;;;8.50;90.70;;;;;;5060783;28;20430;-64
2022/05/30 00:22:31;;;;;;;7.47;5.23;;;8.50;90.70;;;;;;5070038;28;20197;-65
2022/05/30 00:24:57;;;;;;;5.60;5.07;;;8.50;90.70;;;;;;5052894;28;20511;-65
2022/05/30 00:27:23;;;;;;;8.60;5.27;;;8.50;90.70;;;;;;5057321;28;20219;-65
2022/05/30 00:29:48;;;;;;;8.33;6.27;;;8.40;90.70;;;;;;5061447;28;20189;-65
2022/05/30 00:32:14;;;;;;;7.93;5.87;;;8.40;90.70;;;;;;5067788;28;20216;-64
2022/05/30 00:34:40;;;;;;;8.47;5.33;;;8.30;90.70;;;;;;5067684;28;20190;-65
2022/05/30 00:37:06;;;;;;;6.37;5.77;;;8.30;90.70;;;;;;5054628;28;20189;-64
2022/05/30 00:39:32;;;;;;;7.10;5.43;;;8.30;90.70;;;;;;5072205;28;20195;-65
2022/05/30 00:42:16;;;;;;;7.17;5.70;;;8.30;90.80;;;;;;5039134;28;20233;-65
2022/05/30 00:44:44;;;;;;;8.43;6.07;;;8.30;90.80;;;;;;5076774;28;20192;-65
2022/05/30 00:47:10;;;;;;;7.03;6.40;;;8.30;90.80;;;;;;5059698;28;20464;-65
2022/05/30 00:49:38;;;;;;;8.23;5.80;;;8.20;90.80;;;;;;5060729;28;20443;-65
2022/05/30 00:52:07;;;;;;;5.93;5.33;;;8.20;90.80;;;;;;5076903;28;20427;-65
2022/05/30 00:55:01;;;;;;;8.40;6.53;;;8.20;90.70;;;;;;5070514;28;20427;-65
2022/05/30 00:57:31;;;;;;;11.23;6.10;;;8.10;90.80;;;;;;5070911;28;20435;-65
2022/05/30 01:00:11;;;;;;;11.50;8.80;;;8.10;90.80;;;;;;5083084;28;20461;-65
2022/05/30 01:02:39;;;;;;;9.17;7.47;;;8.10;90.90;;;;;;5058996;28;20438;-65
2022/05/30 01:07:53;;;;;;;12.10;9.73;;;8.10;91.10;;;;;;5064785;28;20513;-64
2022/05/30 01:10:21;;;;;;;8.33;7.50;;;8.10;91.10;;;;;;5059480;28;20432;-64
2022/05/30 01:12:53;;;;;;;8.90;8.10;;;8.10;91.10;;;;;;5070979;28;20537;-64
2022/05/30 01:15:21;;;;;;;8.93;7.97;;;8.10;91.00;;;;;;5073668;28;20491;-64
2022/05/30 01:18:13;;;;;;;8.37;7.57;;;8.10;90.90;;;;;;5072021;28;20456;-64
2022/05/30 01:21:17;;;;;;;8.03;7.23;;;8.10;90.90;;;;;;5067460;28;20432;-64
2022/05/30 01:23:49;;;;;;;8.90;7.00;;;8.00;90.80;;;;;;5068758;28;20503;-64
2022/05/30 01:26:51;;;;;;;7.17;6.47;;;8.00;90.80;;;;;;5073239;28;21049;-64
2022/05/30 01:29:32;;;;;;;6.93;6.33;;;7.90;90.70;;;;;;5032877;28;20449;-64
2022/05/30 01:31:58;;;;;;;7.77;7.03;;;7.90;90.70;;;;;;5081675;28;20412;-64
2022/05/30 01:34:26;;;;;;;8.27;7.40;;;7.80;90.70;;;;;;5075849;28;20434;-64
2022/05/30 01:36:52;;;;;;;7.53;6.83;;;7.80;90.50;;;;;;5058003;28;20193;-64
2022/05/30 01:39:18;;;;;;;8.17;7.37;;;7.70;90.60;;;;;;5076128;28;20418;-64
2022/05/30 01:41:44;;;;;;;7.20;6.13;;;7.70;90.70;;;;;;5075377;28;20216;-64
2022/05/30 01:44:10;;;;;;;7.33;6.53;;;7.70;90.60;;;;;;5058302;28;20305;-64
2022/05/30 01:46:35;;;;;;;7.63;6.23;;;7.70;90.60;;;;;;5075206;28;20220;-64
2022/05/30 01:49:01;;;;;;;7.77;6.43;;;7.60;90.70;;;;;;5046574;28;20438;-64
2022/05/30 01:51:27;;;;;;;10.37;6.17;;;7.60;90.80;;;;;;5059044;28;20194;-64
2022/05/30 01:53:53;;;;;;;7.90;6.43;;;7.60;90.80;;;;;;5063552;28;20182;-64
2022/05/30 01:56:21;;;;;;;8.50;7.60;;;7.60;90.80;;;;;;5069591;28;20490;-64
2022/05/30 01:58:46;;;;;;;8.07;7.27;;;7.50;90.80;;;;;;5068586;28;20185;-64
2022/05/30 02:01:18;;;;;;;8.07;7.27;;;7.60;90.90;;;;;;5063471;28;20427;-64
2022/05/30 02:03:45;;;;;;;10.13;8.47;;;7.60;91.10;;;;;;5065582;28;20239;-64
2022/05/30 02:06:11;;;;;;;9.70;8.77;;;7.60;91.30;;;;;;5067253;28;20464;-63
2022/05/30 02:08:37;;;;;;;10.60;8.70;;;7.60;91.30;;;;;;5050121;28;20444;-63
2022/05/30 02:11:03;;;;;;;9.37;8.47;;;7.60;91.40;;;;;;5062962;28;20193;-63
2022/05/30 02:13:29;;;;;;;9.37;8.27;;;7.60;91.30;;;;;;5068426;28;20182;-64
2022/05/30 02:18:38;;;;;;;8.70;7.90;;;7.70;91.20;;;;;;5068520;28;20197;-63
2022/05/30 02:21:04;;;;;;;8.17;7.37;;;7.70;91.00;;;;;;5056994;28;20429;-64
2022/05/30 02:23:30;;;;;;;8.10;7.17;;;7.60;91.00;;;;;;5043952;28;20188;-63
2022/05/30 02:25:56;;;;;;;8.10;7.30;;;7.60;90.90;;;;;;5049480;28;20229;-63
2022/05/30 02:28:21;;;;;;;7.73;7.03;;;7.60;90.80;;;;;;5044019;28;20332;-63
2022/05/30 02:30:47;;;;;;;7.50;6.80;;;7.50;90.80;;;;;;5058013;28;20190;-64
2022/05/30 02:38:41;;;;;;;7.10;6.30;;;7.50;90.90;;;;;;5055149;28;21039;-64
2022/05/30 02:41:06;;;;;;;9.10;7.53;;;7.50;90.80;;;;;;5070466;28;20577;-64
2022/05/30 02:43:32;;;;;;;8.33;6.97;;;7.40;90.80;;;;;;5064060;28;20239;-64
2022/05/30 02:45:58;;;;;;;7.17;6.47;;;7.40;90.90;;;;;;5056918;28;20213;-65
2022/05/30 02:48:23;;;;;;;8.67;7.37;;;7.40;90.90;;;;;;5057276;28;20185;-64
2022/05/30 02:50:49;;;;;;;7.57;6.87;;;7.40;91.00;;;;;;5050860;28;20272;-64
2022/05/30 02:53:15;;;;;;;8.50;7.50;;;7.40;91.00;;;;;;5057866;28;20192;-64
2022/05/30 02:55:40;;;;;;;10.73;7.40;;;7.40;91.10;;;;;;5052292;28;20643;-65
2022/05/30 02:58:06;;;;;;;8.70;7.80;;;7.40;91.00;;;;;;5026871;28;20195;-64
2022/05/30 03:00:32;;;;;;;8.77;7.37;;;7.40;90.90;;;;;;5040083;28;20189;-65
2022/05/30 03:02:58;;;;;;;7.97;7.17;;;7.40;90.90;;;;;;5074249;28;20185;-65
2022/05/30 03:05:23;;;;;;;8.30;7.50;;;7.40;90.90;;;;;;5069428;28;20185;-64
2022/05/30 03:07:49;;;;;;;9.10;6.77;;;7.30;90.80;;;;;;5053579;28;20471;-63
2022/05/30 03:10:15;;;;;;;8.63;7.83;;;7.30;90.90;;;;;;5055517;28;20190;-63
2022/05/30 03:12:40;;;;;;;8.73;7.50;;;7.30;90.90;;;;;;5051459;28;20193;-63
2022/05/30 03:15:07;;;;;;;7.10;6.40;;;7.30;90.90;;;;;;5048026;28;20220;-63
2022/05/30 03:17:32;;;;;;;10.63;7.33;;;7.30;91.00;;;;;;5048165;28;20196;-63
2022/05/30 03:19:58;;;;;;;8.13;7.37;;;7.30;91.00;;;;;;5052996;28;20444;-63
2022/05/30 03:22:23;;;;;;;8.90;6.87;;;7.30;91.00;;;;;;5058428;28;20190;-63
2022/05/30 03:24:49;;;;;;;8.13;7.13;;;7.30;91.00;;;;;;5050891;28;20208;-63
2022/05/30 03:27:15;;;;;;;8.63;7.67;;;7.30;91.00;;;;;;5044514;28;20271;-63
2022/05/30 03:29:40;;;;;;;8.27;7.53;;;7.30;90.90;;;;;;5045325;28;20196;-64
2022/05/30 03:32:06;;;;;;;8.00;7.20;;;7.30;90.90;;;;;;5042448;28;20190;-63
2022/05/30 03:34:32;;;;;;;8.17;7.17;;;7.30;91.00;;;;;;5046376;28;20239;-64
2022/05/30 03:36:57;;;;;;;8.33;7.53;;;7.40;90.90;;;;;;5056230;28;20498;-64
2022/05/30 03:39:23;;;;;;;11.93;7.50;;;7.40;91.00;;;;;;5036701;28;20201;-64
2022/05/30 03:41:49;;;;;;;8.30;7.50;;;7.50;91.00;;;;;;5057206;28;20252;-63
2022/05/30 03:44:14;;;;;;;7.90;7.10;;;7.50;91.10;;;;;;5043493;28;20204;-63
2022/05/30 03:46:40;;;;;;;8.37;7.47;;;7.50;91.10;;;;;;5037023;28;20225;-63
2022/05/30 03:49:05;;;;;;;9.40;8.40;;;7.60;91.10;;;;;;5036842;28;20233;-67
2022/05/30 03:51:32;;;;;;;9.67;8.77;;;7.70;91.20;;;;;;5061961;28;20219;-67
2022/05/30 03:53:58;;;;;;;10.53;9.33;;;7.70;91.10;;;;;;5047650;28;20201;-66
2022/05/30 03:56:24;;;;;;;8.60;7.70;;;7.70;91.30;;;;;;5037991;28;20451;-66
2022/05/30 03:58:49;;;;;;;10.23;8.80;;;7.80;91.30;;;;;;5060148;28;20187;-66
2022/05/30 04:01:15;;;;;;;9.17;8.27;;;7.90;91.30;;;;;;5058695;28;20239;-65
2022/05/30 04:03:41;;;;;;;8.30;7.50;;;7.90;91.30;;;;;;5043483;28;20198;-65
2022/05/30 04:06:07;;;;;;;7.87;7.13;;;7.90;91.00;;;;;;5037998;28;20202;-65
2022/05/30 04:08:33;;;;;;;7.43;6.73;;;7.90;91.00;;;;;;5060079;28;20186;-65
2022/05/30 04:11:00;;;;;;;8.63;7.80;;;8.00;91.10;;;;;;5071442;28;20438;-65
2022/05/30 04:13:25;;;;;;;8.50;7.60;;;8.00;91.20;;;;;;5069169;28;20189;-65
2022/05/30 04:15:51;;;;;;;8.77;6.90;;;8.10;91.10;;;;;;5055729;28;20447;-65
2022/05/30 04:18:17;;;;;;;7.47;6.77;;;8.10;91.10;;;;;;5048869;28;20193;-65
2022/05/30 04:20:46;;;;;;;8.23;7.00;;;8.20;91.00;;;;;;5040355;28;20198;-65
2022/05/30 04:23:12;;;;;;;7.70;7.00;;;8.30;90.90;;;;;;5060447;28;20190;-65
2022/05/30 04:25:38;;;;;;;9.57;7.70;;;8.30;90.60;;;;;;5045186;28;20469;-65
2022/05/30 04:28:04;;;;;;;7.93;7.13;;;8.30;90.70;;;;;;5061558;28;20511;-65
2022/05/30 04:30:30;;;;;;;7.37;6.77;;;8.30;90.70;;;;;;5060223;28;20181;-65
2022/05/30 04:32:56;;;;;;;7.83;7.13;;;8.40;90.70;;;;;;5044584;28;20276;-65
2022/05/30 04:35:22;;;;;;;11.90;8.43;;;8.40;90.70;;;;;;5049022;28;20198;-65
2022/05/30 04:37:49;;;;;;;9.03;8.13;;;8.40;90.80;;;;;;5045608;28;20209;-65
2022/05/30 04:40:18;;;;;;;9.03;8.13;;;8.60;90.90;;;;;;5056446;28;20185;-65
2022/05/30 04:42:45;;;;;;;7.77;6.97;;;8.60;90.70;;;;;;5060062;28;20496;-65
2022/05/30 04:45:12;;;;;;;7.87;6.43;;;8.70;90.50;;;;;;5067231;28;20462;-65
2022/05/30 04:47:39;;;;;;;6.93;6.27;;;8.70;90.50;;;;;;5068041;28;20481;-65
2022/05/30 04:50:07;;;;;;;7.97;7.07;;;8.70;90.10;;;;;;5059611;28;20420;-65
2022/05/30 04:52:32;;;;;;;6.87;6.17;;;8.80;90.10;;;;;;5066092;28;20428;-65
2022/05/30 04:54:58;;;;;;;7.67;6.97;;;8.70;89.50;;;;;;5056560;28;20518;-65
2022/05/30 04:57:24;;;;;;;8.97;8.03;;;8.80;89.80;;;;;;5053158;28;20243;-65
2022/05/30 04:59:50;;;;;;;10.87;7.83;;;8.80;90.00;;;;;;5061618;28;20185;-65
2022/05/30 05:02:16;;;;;;;8.70;7.80;;;8.90;90.20;;;;;;5045689;28;20438;-65
2022/05/30 05:04:42;;;;;;;7.23;6.50;;;8.90;90.30;;;;;;5051171;28;20639;-65
2022/05/30 05:07:09;;;;;;;7.80;7.00;;;9.00;89.70;;;;;;5043168;28;20478;-65
2022/05/30 05:10:06;;;;;;;7.37;6.30;;;9.00;89.50;;;;;;5045691;28;20308;-65
2022/05/30 05:12:32;;;;;;;7.87;6.87;;;9.00;89.90;;;;;;5041891;28;20508;-65
2022/05/30 05:14:57;;;;;;;7.67;6.70;;;9.20;89.80;;;;;;5043746;28;20531;-65
2022/05/30 05:17:23;;;;;;;10.80;6.43;;;9.20;89.10;;;;;;5044382;28;20570;-65
2022/05/30 05:19:48;;;;;;;9.43;5.77;;;9.30;89.00;;;;;;5051951;28;20209;-65
2022/05/30 05:22:15;;;;;;;6.33;5.73;;;9.30;88.60;;;;;;5063770;28;20198;-66
2022/05/30 05:24:41;;;;;;;6.83;6.13;;;9.30;88.60;;;;;;5049884;28;20194;-65
2022/05/30 05:27:07;;;;;;;8.13;7.33;;;9.40;89.00;;;;;;5058856;28;20477;-65
2022/05/30 05:29:33;;;;;;;7.13;6.47;;;9.50;89.40;;;;;;5043938;28;20193;-65
2022/05/30 05:31:59;;;;;;;6.83;6.23;;;9.60;89.40;;;;;;5067932;28;20182;-65
2022/05/30 05:34:24;;;;;;;6.87;6.20;;;9.60;89.50;;;;;;5040880;28;20451;-65
2022/05/30 05:36:50;;;;;;;6.83;6.23;;;9.70;89.50;;;;;;5041402;28;20206;-66
2022/05/30 05:39:17;;;;;;;7.63;6.83;;;9.80;89.30;;;;;;5057167;28;20198;-65
2022/05/30 05:41:44;;;;;;;7.00;6.30;;;9.80;89.10;;;;;;5053289;28;20201;-65
2022/05/30 05:44:11;;;;;;;7.10;6.40;;;9.90;89.30;;;;;;5074800;28;20544;-65
2022/05/30 05:46:37;;;;;;;6.63;5.93;;;10.00;89.10;;;;;;5052492;28;20475;-65
2022/05/30 05:49:03;;;;;;;5.97;5.47;;;10.00;88.30;;;;;;5037524;28;20448;-64
2022/05/30 05:51:29;;;;;;;5.90;5.30;;;10.00;87.90;;;;;;5050303;28;20186;-64
2022/05/30 05:53:56;;;;;;;6.70;6.03;;;9.90;87.70;;;;;;5040708;28;20424;-65
2022/05/30 05:56:24;;;;;;;6.03;5.53;;;10.00;88.40;;;;;;5044899;28;20190;-65
2022/05/30 05:58:50;;;;;;;7.40;6.17;;;10.10;88.10;;;;;;5064996;28;20440;-65
2022/05/30 06:01:22;;;;;;;6.23;5.73;;;10.20;88.70;;;;;;5053144;28;20433;-65
2022/05/30 06:03:48;;;;;;;5.90;5.20;;;10.20;87.50;;;;;;5067668;28;20202;-65
2022/05/30 06:06:14;;;;;;;6.30;5.67;;;10.30;87.60;;;;;;5035467;28;20526;-65
2022/05/30 06:08:39;;;;;;;7.43;5.93;;;10.30;88.00;;;;;;5063245;28;20193;-65
2022/05/30 06:11:05;;;;;;;5.73;5.20;;;10.40;87.50;;;;;;5064030;28;20189;-65
2022/05/30 06:13:36;;;;;;;6.53;5.93;;;10.40;87.20;;;;;;5058154;28;20190;-65
2022/05/30 06:16:08;;;;;;;6.07;5.53;;;10.50;87.30;;;;;;5061813;28;20194;-65
2022/05/30 06:18:34;;;;;;;6.20;5.67;;;10.60;87.70;;;;;;5066179;28;20432;-65
2022/05/30 06:21:00;;;;;;;5.80;5.13;;;10.70;87.90;;;;;;5060067;28;20424;-65
2022/05/30 06:23:26;;;;;;;5.80;5.30;;;10.70;87.90;;;;;;5066457;28;20526;-65
2022/05/30 06:25:53;;;;;;;6.00;5.50;;;10.80;87.30;;;;;;5053192;28;20527;-65
2022/05/30 06:28:18;;;;;;;6.30;5.70;;;10.80;85.20;;;;;;5054036;28;20350;-65
2022/05/30 06:30:44;;;;;;;6.43;5.63;;;10.90;85.90;;;;;;5052372;28;20527;-65
2022/05/30 06:33:10;;;;;;;5.53;5.03;;;11.00;85.30;;;;;;5051166;28;20284;-65
2022/05/30 06:35:40;;;;;;;6.37;5.10;;;11.00;83.90;;;;;;5056120;28;20189;-65
2022/05/30 06:38:08;;;;;;;7.43;5.30;;;11.20;84.90;;;;;;5054655;28;20284;-65
2022/05/30 06:40:33;;;;;;;6.03;5.43;;;11.30;84.40;;;;;;5054522;28;20444;-65
2022/05/30 06:42:59;;;;;;;6.23;5.20;;;11.30;83.80;;;;;;5052549;28;20665;-65
2022/05/30 06:45:26;;;;;;;5.70;5.20;;;11.40;84.60;;;;;;5056155;28;20189;-66
2022/05/30 06:47:51;;;;;;;6.83;5.27;;;11.50;85.20;;;;;;5056062;28;20290;-66
2022/05/30 06:50:17;;;;;;;6.47;5.53;;;11.60;85.70;;;;;;5055778;28;20498;-65
2022/05/30 06:52:43;;;;;;;6.13;5.53;;;11.70;84.50;;;;;;5044750;28;20186;-65
2022/05/30 06:55:09;;;;;;;7.13;5.63;;;11.80;85.20;;;;;;5046208;28;20198;-64
2022/05/30 07:00:20;;;;;;;6.17;5.20;;;11.90;86.00;;;;;;5042720;28;20464;-64
2022/05/30 07:02:46;;;;;;;5.90;5.00;;;12.00;85.90;;;;;;5049596;28;20428;-65
2022/05/30 07:05:12;;;;;;;4.70;4.30;;;12.20;85.50;;;;;;5064060;28;20448;-65
2022/05/30 07:07:41;;;;;;;5.07;4.60;;;12.20;84.00;;;;;;5035326;28;20338;-64
2022/05/30 07:10:09;;;;;;;5.57;4.47;;;12.30;84.50;;;;;;5061292;28;20185;-64
2022/05/30 07:12:35;;;;;;;6.80;5.00;;;12.40;83.30;;;;;;5056741;28;20171;-64
2022/05/30 07:15:00;;;;;;;4.80;4.40;;;12.40;82.00;;;;;;5049854;28;20231;-65
2022/05/30 07:17:26;;;;;;;6.10;4.50;;;12.50;82.80;;;;;;5055335;28;20243;-65
2022/05/30 07:19:52;;;;;;;4.07;3.73;;;12.60;81.90;;;;;;5056101;28;20201;-65
2022/05/30 07:22:18;;;;;;;5.57;4.63;;;12.70;82.80;;;;;;5066500;28;20259;-65
2022/05/30 07:24:44;;;;;;;4.30;3.90;;;12.80;83.40;;;;;;5063298;28;20190;-65
2022/05/30 07:27:10;;;;;;;4.67;3.63;;;12.80;81.20;;;;;;5051418;28;20279;-65
2022/05/30 07:29:36;;;;;;;5.10;4.17;;;12.90;82.90;;;;;;5053622;28;20178;-65
2022/05/30 07:32:03;;;;;;;4.97;4.57;;;13.00;82.50;;;;;;5041892;28;20190;-65
2022/05/30 07:34:29;;;;;;;5.20;3.57;;;13.10;82.80;;;;;;5062906;28;20201;-65
2022/05/30 07:36:55;;;;;;;4.20;3.80;;;13.00;80.10;;;;;;5065815;28;20197;-65
2022/05/30 07:39:20;;;;;;;3.97;3.50;;;13.10;81.80;;;;;;5054100;28;20186;-65
2022/05/30 07:41:46;;;;;;;4.00;3.67;;;13.20;82.90;;;;;;5055026;28;20238;-64
2022/05/30 07:44:12;;;;;;;5.93;4.20;;;13.30;83.40;;;;;;5048884;28;20205;-65
2022/05/30 07:46:39;;;;;;;5.23;3.57;;;13.30;83.60;;;;;;5053775;28;20216;-63
2022/05/30 07:49:05;;;;;;;4.97;3.97;;;13.30;83.50;;;;;;5062944;28;20284;-64
2022/05/30 07:51:31;;;;;;;4.93;3.93;;;13.30;83.70;;;;;;5053818;28;20515;-64
2022/05/30 07:53:57;;;;;;;4.37;3.47;;;13.30;83.30;;;;;;5063854;28;20213;-64
2022/05/30 07:56:23;;;;;;;3.63;3.30;;;13.30;83.50;;;;;;5068809;28;20190;-64
2022/05/30 07:58:49;;;;;;;5.30;3.97;;;13.30;83.60;;;;;;5042653;28;20305;-63
2022/05/30 08:01:18;;;;;;;4.20;3.80;;;13.30;84.00;;;;;;5033676;28;20194;-64
2022/05/30 08:03:45;;;;;;;3.53;3.20;;;13.30;83.50;;;;;;5069314;28;20190;-64
2022/05/30 08:06:22;;;;;;;5.40;3.33;;;13.30;84.20;;;;;;5048007;28;20194;-64
2022/05/30 08:08:48;;;;;;;3.67;3.33;;;13.40;83.60;;;;;;5076381;28;20190;-64
2022/05/30 08:11:15;;;;;;;5.63;3.27;;;13.60;84.10;;;;;;5072747;28;20189;-64
2022/05/30 08:13:42;;;;;;;3.70;3.40;;;13.70;84.00;;;;;;5054635;28;20241;-64
2022/05/30 08:16:07;;;;;;;3.53;2.97;;;13.80;83.80;;;;;;5065697;28;20256;-64
2022/05/30 08:18:34;;;;;;;4.20;3.20;;;13.90;83.10;;;;;;5062839;28;20185;-64
2022/05/30 08:21:01;;;;;;;2.60;2.40;;;13.90;79.30;;;;;;5068095;28;20189;-64
2022/05/30 08:23:27;;;;;;;3.93;3.00;;;13.90;76.50;;;;;;5050099;28;20197;-63
2022/05/30 08:25:54;;;;;;;4.67;2.90;;;13.90;77.50;;;;;;5065973;28;20205;-63
2022/05/30 08:28:20;;;;;;;3.37;3.07;;;13.90;80.50;;;;;;5054149;28;20189;-64
2022/05/30 08:30:46;;;;;;;4.70;3.30;;;14.00;79.10;;;;;;5066144;28;20215;-63
2022/05/30 08:33:14;;;;;;;4.07;3.20;;;14.00;78.40;;;;;;5071798;28;20272;-64
2022/05/30 08:35:39;;;;;;;3.17;2.87;;;14.00;80.00;;;;;;5064944;28;20280;-64
2022/05/30 08:38:05;;;;;;;4.53;3.87;;;14.00;80.90;;;;;;5051145;28;20289;-64
2022/05/30 08:43:31;;;;;;;3.70;3.27;;;14.10;78.70;;;;;;5070536;28;20260;-64
2022/05/30 08:46:02;;;;;;;4.10;3.70;;;14.20;77.50;;;;;;5060822;28;20283;-65
2022/05/30 08:48:42;;;;;;;3.93;3.53;;;14.30;79.10;;;;;;5082500;28;20185;-65
2022/05/30 08:51:38;;;;;;;4.00;3.57;;;14.30;77.90;;;;;;5061206;28;20249;-65
2022/05/30 08:54:22;;;;;;;3.57;3.27;;;14.40;76.70;;;;;;5062069;28;20193;-65
2022/05/30 08:56:51;;;;;;;3.83;3.40;;;14.50;76.40;;;;;;5069772;28;20186;-63
2022/05/30 08:59:41;;;;;;;4.43;2.93;;;14.50;76.50;;;;;;5069880;28;20222;-63
2022/05/30 09:02:20;;;;;;;3.57;3.10;;;14.60;76.40;;;;;;5069473;28;20186;-64
2022/05/30 09:04:56;;;;;;;3.83;3.43;;;14.60;77.00;;;;;;5082730;28;20193;-64
2022/05/30 09:07:27;;;;;;;5.70;3.60;;;14.70;76.40;;;;;;5072882;28;20201;-64
2022/05/30 09:10:07;;;;;;;4.00;3.57;;;14.80;77.60;;;;;;5069390;28;20196;-64
2022/05/30 09:12:45;;;;;;;5.00;3.30;;;15.00;77.70;;;;;;5069732;28;20243;-64
2022/05/30 09:15:17;;;;;;;3.37;3.07;;;15.00;74.80;;;;;;5059956;28;20209;-64
2022/05/30 09:17:50;;;;;;;3.27;2.97;;;15.10;76.90;;;;;;5071996;28;20186;-63
2022/05/30 09:20:20;;;;;;;3.00;2.70;;;15.20;76.10;;;;;;5072891;28;20291;-63
2022/05/30 09:22:47;;;;;;;2.40;2.20;;;15.30;76.60;;;;;;5064653;28;20187;-64
2022/05/30 09:28:08;;;;;;;3.43;2.93;;;15.30;76.30;;;;;;5069829;28;20204;-64
2022/05/30 09:30:50;;;;;;;2.63;2.33;;;15.40;76.40;;;;;;5065375;28;20178;-63
2022/05/30 09:33:19;;;;;;;5.23;3.13;;;15.40;76.10;;;;;;5072935;28;20178;-63
2022/05/30 09:35:45;;;;;;;5.80;3.27;;;15.40;72.60;;;;;;5073779;28;20192;-63
2022/05/30 09:38:22;;;;;;;4.30;3.90;;;15.50;74.80;;;;;;5066965;28;20189;-63
2022/05/30 09:40:54;;;;;;;4.90;3.80;;;15.70;75.60;;;;;;5065955;28;20190;-63
2022/05/30 09:43:51;;;;;;;4.67;3.43;;;15.80;74.00;;;;;;5068287;28;20320;-63
2022/05/30 09:46:19;;;;;;;3.37;3.07;;;15.80;70.60;;;;;;5037017;28;20206;-64
2022/05/30 09:49:00;;;;;;;3.53;3.23;;;16.00;71.60;;;;;;5072640;28;20185;-63
2022/05/30 09:51:41;;;;;;;4.70;4.20;;;16.20;68.00;;;;;;5079715;28;20178;-63
2022/05/30 09:54:23;;;;;;;7.07;3.40;;;16.20;67.00;;;;;;5084592;28;20228;-63
2022/05/30 09:56:51;;;;;;;5.23;3.73;;;16.20;67.10;;;;;;5077022;28;20193;-63
2022/05/30 09:59:35;;;;;;;4.83;3.63;;;16.20;68.60;;;;;;5073317;28;20181;-63
2022/05/30 10:02:02;;;;;;;4.80;4.30;;;16.10;67.50;;;;;;5063493;28;20189;-63
2022/05/30 10:04:44;;;;;;;4.77;4.27;;;15.90;65.00;;;;;;5073005;28;20253;-63
2022/05/30 10:07:16;;;;;;;7.33;4.00;;;15.90;65.10;;;;;;5071721;28;20213;-64
2022/05/30 10:09:54;;;;;;;6.43;3.93;;;15.90;66.90;;;;;;5065224;28;20217;-64
2022/05/30 10:12:29;;;;;;;5.23;3.90;;;16.00;67.10;;;;;;5059440;28;20194;-64
2022/05/30 10:14:55;;;;;;;4.63;3.77;;;16.10;69.40;;;;;;5059049;28;20320;-63
2022/05/30 10:17:29;;;;;;;4.00;3.70;;;16.20;67.90;;;;;;5072451;28;20670;-63
2022/05/30 10:19:55;;;;;;;5.37;3.40;;;16.30;66.90;;;;;;5069342;28;20222;-63
2022/05/30 10:28:49;;;;;;;4.50;3.90;;;16.50;66.60;;;;;;5073638;28;20228;-64
2022/05/30 10:31:38;;;;;;;6.53;3.90;;;16.60;65.70;;;;;;5081200;28;20186;-64
2022/05/30 10:34:32;;;;;;;6.70;4.77;;;16.80;68.40;;;;;;5066776;28;20337;-64
2022/05/30 10:37:12;;;;;;;5.70;4.50;;;16.90;68.30;;;;;;5063589;28;20226;-64
2022/05/30 10:39:51;;;;;;;3.93;3.50;;;17.00;66.00;;;;;;5084223;28;20219;-63
2022/05/30 10:42:34;;;;;;;3.93;3.30;;;17.10;66.80;;;;;;5071867;28;20233;-63
2022/05/30 10:45:34;;;;;;;4.47;3.57;;;17.10;61.90;;;;;;5070561;28;20289;-63
2022/05/30 10:48:04;;;;;;;3.80;3.40;;;17.00;59.80;;;;;;5070200;28;20229;-63
2022/05/30 10:50:43;;;;;;;3.40;3.10;;;17.20;61.30;;;;;;5058052;28;20194;-63
2022/05/30 10:53:30;;;;;;;3.43;2.60;;;17.10;58.50;;;;;;5065311;28;20189;-63
2022/05/30 10:56:02;;;;;;;3.13;2.63;;;17.20;61.10;;;;;;5061340;28;20239;-63
2022/05/30 10:58:43;;;;;;;3.70;3.40;;;17.30;58.90;;;;;;5058039;28;20198;-63
2022/05/30 11:01:18;;;;;;;4.57;3.33;;;17.50;60.60;;;;;;5062351;28;20190;-64
2022/05/30 11:03:52;;;;;;;3.67;3.00;;;17.70;57.60;;;;;;5063194;28;20193;-63
2022/05/30 11:06:24;;;;;;;4.93;3.13;;;17.80;60.00;;;;;;5052854;28;20277;-62
2022/05/30 11:09:07;;;;;;;4.10;3.07;;;17.90;59.70;;;;;;5084499;28;20193;-63
2022/05/30 11:12:00;;;;;;;4.83;3.03;;;17.80;55.50;;;;;;5065899;28;20191;-63
2022/05/30 11:14:47;;;;;;;2.90;2.60;;;18.10;60.10;;;;;;5073281;28;20196;-63
2022/05/30 11:17:32;;;;;;;2.23;2.10;;;18.30;62.30;;;;;;5055847;28;20186;-63
2022/05/30 11:20:18;;;;;;;4.07;2.53;;;18.50;61.40;;;;;;5064935;28;20201;-63
2022/05/30 11:22:52;;;;;;;3.13;2.40;;;18.50;59.20;;;;;;5058505;28;20198;-63
2022/05/30 11:25:58;;;;;;;3.03;2.73;;;18.60;60.90;;;;;;5066979;28;20213;-62
2022/05/30 11:28:29;;;;;;;2.60;2.40;;;18.70;60.30;;;;;;5060547;28;20206;-63
2022/05/30 11:31:06;;;;;;;6.83;2.47;;;18.60;58.90;;;;;;5065676;28;20193;-63
2022/05/30 11:33:48;;;;;;;5.07;2.00;;;18.70;59.90;;;;;;5065969;28;20190;-63
2022/05/30 11:36:29;;;;;;;2.90;1.93;;;18.80;59.60;;;;;;5077621;28;20196;-63
2022/05/30 11:39:13;;;;;;;3.27;2.00;;;18.70;59.60;;;;;;5068973;28;20186;-63
2022/05/30 11:41:59;;;;;;;3.50;2.50;;;18.80;57.40;;;;;;5061297;28;20181;-63
2022/05/30 11:44:28;;;;;;;3.27;2.30;;;18.80;56.60;;;;;;5055342;28;20198;-62
2022/05/30 11:47:24;;;;;;;3.77;2.50;;;18.60;56.40;;;;;;5052080;28;20229;-62
2022/05/30 11:49:53;;;;;;;3.30;2.87;;;18.50;57.80;;;;;;5053042;28;20191;-61
2022/05/30 11:52:31;;;;;;;4.53;3.60;;;18.50;56.30;;;;;;5082137;28;20179;-63
2022/05/30 11:55:07;;;;;;;2.77;2.50;;;18.50;58.00;;;;;;5068844;28;20190;-63
2022/05/30 11:57:58;;;;;;;4.57;2.80;;;19.10;58.40;;;;;;5069590;28;20216;-63
2022/05/30 12:00:43;;;;;;;4.27;2.43;;;19.90;55.80;;;;;;5071243;28;20182;-63
2022/05/30 12:03:22;;;;;;;5.10;2.50;;;20.50;50.10;;;;;;5067797;28;20182;-63
2022/05/30 12:06:08;;;;;;;2.63;2.00;;;20.70;53.80;;;;;;5072148;28;20201;-63
2022/05/30 12:08:46;;;;;;;3.93;2.07;;;20.60;53.50;;;;;;5061951;28;20272;-63
2022/05/30 12:11:35;;;;;;;4.80;2.53;;;20.30;50.20;;;;;;5058178;28;20197;-63
2022/05/30 12:14:19;;;;;;;3.30;1.80;;;20.50;54.20;;;;;;5075965;28;20217;-64
2022/05/30 12:17:23;;;;;;;3.37;1.80;;;20.80;53.60;;;;;;5063001;28;20212;-63
2022/05/30 12:26:01;;;;;;;2.47;1.73;;;23.00;48.90;;;;;;5058480;28;20208;-64
2022/05/30 12:28:27;;;;;;;2.30;2.00;;;24.50;47.90;;;;;;5062066;28;20222;-63
2022/05/30 12:30:59;;;;;;;3.07;2.60;;;25.70;43.80;;;;;;5072585;28;20185;-63
2022/05/30 12:33:30;;;;;;;2.50;1.93;;;26.70;38.60;;;;;;5063515;28;20216;-63
2022/05/30 12:36:08;;;;;;;2.23;1.93;;;27.40;37.50;;;;;;5058013;28;20190;-63
2022/05/30 12:38:53;;;;;;;2.67;2.10;;;28.20;35.30;;;;;;5059681;28;20185;-63
2022/05/30 12:41:26;;;;;;;2.47;1.67;;;29.10;35.80;;;;;;5074907;28;20196;-63
2022/05/30 12:43:52;;;;;;;3.70;1.73;;;30.40;35.30;;;;;;5087642;28;20229;-63
2022/05/30 12:46:21;;;;;;;2.20;1.77;;;30.70;33.00;;;;;;5058371;28;20263;-63
2022/05/30 12:48:50;;;;;;;2.13;1.53;;;30.20;32.50;;;;;;5071061;28;20179;-63
2022/05/30 12:51:24;;;;;;;2.57;1.50;;;30.20;31.70;;;;;;5069423;28;20190;-63
2022/05/30 12:53:57;;;;;;;3.23;1.80;;;30.20;32.60;;;;;;5065505;28;20200;-63
2022/05/30 12:56:38;;;;;;;3.33;1.33;;;30.10;32.70;;;;;;5075467;28;20274;-63
2022/05/30 12:59:03;;;;;;;1.33;1.13;;;29.30;33.20;;;;;;5072394;28;20185;-63
2022/05/30 13:01:54;;;;;;;2.87;1.50;;;29.20;35.20;;;;;;5072204;28;20246;-63
2022/05/30 13:04:22;;;;;;;1.80;1.40;;;29.70;33.10;;;;;;5076464;28;20192;-63
2022/05/30 13:06:56;;;;;;;1.40;1.30;;;29.70;33.80;;;;;;5074754;28;20215;-63
2022/05/30 13:09:35;;;;;;;2.43;1.10;;;30.20;34.10;;;;;;5075696;28;20276;-63
2022/05/30 13:12:04;;;;;;;1.80;1.70;;;30.20;32.60;;;;;;5080178;28;20244;-63
2022/05/30 13:14:51;;;;;;;1.27;1.17;;;29.90;32.00;;;;;;5068948;28;20243;-63
2022/05/30 13:17:16;;;;;;;2.63;1.43;;;28.90;33.80;;;;;;5072705;28;20300;-63
2022/05/30 13:20:01;;;;;;;2.77;1.60;;;28.00;35.60;;;;;;5075855;28;20281;-63
2022/05/30 13:23:03;;;;;;;2.87;1.40;;;26.90;35.70;;;;;;5061100;28;20187;-63
2022/05/30 13:25:43;;;;;;;1.97;1.40;;;25.70;38.80;;;;;;5076014;28;20189;-62
2022/05/30 13:28:22;;;;;;;3.17;1.00;;;25.00;40.80;;;;;;5073998;28;20250;-62
2022/05/30 13:30:50;;;;;;;1.73;0.97;;;24.40;41.20;;;;;;5075714;28;20186;-63
2022/05/30 13:33:27;;;;;;;2.20;1.13;;;23.90;42.50;;;;;;5056336;28;20189;-62
2022/05/30 13:36:00;;;;;;;1.00;0.80;;;23.70;42.60;;;;;;5075515;28;20252;-62
2022/05/30 13:38:42;;;;;;;1.03;1.03;;;23.70;43.00;;;;;;5068535;28;20190;-62
2022/05/30 13:41:13;;;;;;;3.57;1.20;;;23.80;42.70;;;;;;5067952;28;20192;-62